createdAt,value
2023-10-08T00:00:47.153Z,63.46
2023-10-08T00:01:23.022Z,63.73
2023-10-08T00:01:59.155Z,62.98
2023-10-08T00:02:34.347Z,64.06
2023-10-08T00:03:12.613Z,63.53
2023-10-08T00:03:55.384Z,63.21
2023-10-08T00:04:30.720Z,62.99
2023-10-08T00:05:07.051Z,62.58
2023-10-08T00:05:42.995Z,62.82
2023-10-08T00:06:22.094Z,63.39
2023-10-08T00:06:57.437Z,63.37
2023-10-08T00:07:31.064Z,63.78
2023-10-08T00:08:07.347Z,63.76
2023-10-08T00:08:42.924Z,63.19
2023-10-08T00:09:18.018Z,63.22
2023-10-08T00:09:54.176Z,63.29
2023-10-08T00:10:29.686Z,63.17
2023-10-08T00:11:11.822Z,63.44
2023-10-08T00:11:52.738Z,64.04
2023-10-08T00:12:30.557Z,63.40
2023-10-08T00:13:08.898Z,63.15
2023-10-08T00:13:43.775Z,63.35
2023-10-08T00:14:23.697Z,63.77
2023-10-08T00:14:56.997Z,63.40
2023-10-08T00:15:33.402Z,63.70
2023-10-08T00:16:12.840Z,63.22
2023-10-08T00:16:51.772Z,63.48
2023-10-08T00:17:27.615Z,63.55
2023-10-08T00:18:02.650Z,63.48
2023-10-08T00:18:38.548Z,63.84
2023-10-08T00:19:16.282Z,63.38
2023-10-08T00:19:54.456Z,63.43
2023-10-08T00:20:36.796Z,64.09
2023-10-08T00:21:12.428Z,64.32
2023-10-08T00:21:46.815Z,64.23
2023-10-08T00:22:21.364Z,64.01
2023-10-08T00:22:57.135Z,63.42
2023-10-08T00:23:32.702Z,63.41
2023-10-08T00:24:10.457Z,63.61
2023-10-08T00:25:17.638Z,63.74
2023-10-08T00:25:56.842Z,63.54
2023-10-08T00:26:32.495Z,63.92
2023-10-08T00:27:08.000Z,63.22
2023-10-08T00:27:43.438Z,64.13
2023-10-08T00:28:19.614Z,63.68
2023-10-08T00:28:54.658Z,63.40
2023-10-08T00:29:28.542Z,63.69
2023-10-08T00:30:39.935Z,63.70
2023-10-08T00:31:18.776Z,63.62
2023-10-08T00:31:58.326Z,64.10
2023-10-08T00:33:18.433Z,64.44
2023-10-08T00:34:28.834Z,64.13
2023-10-08T00:35:02.786Z,64.55
2023-10-08T00:35:43.394Z,64.57
2023-10-08T00:36:20.089Z,64.67
2023-10-08T00:36:55.085Z,64.79
2023-10-08T00:37:30.995Z,64.74
2023-10-08T00:38:16.039Z,64.53
2023-10-08T00:38:51.943Z,64.57
2023-10-08T00:39:26.331Z,65.04
2023-10-08T00:40:39.787Z,65.22
2023-10-08T00:41:16.434Z,64.82
2023-10-08T00:42:00.328Z,65.30
2023-10-08T00:42:37.240Z,65.42
2023-10-08T00:43:12.027Z,65.49
2023-10-08T00:43:47.240Z,65.60
2023-10-08T00:44:30.936Z,65.42
2023-10-08T00:45:06.613Z,65.56
2023-10-08T00:45:45.120Z,65.20
2023-10-08T00:46:20.930Z,65.35
2023-10-08T00:47:28.198Z,65.54
2023-10-08T00:48:04.208Z,65.77
2023-10-08T00:48:40.427Z,65.63
2023-10-08T00:49:27.445Z,65.25
2023-10-08T00:50:07.938Z,65.41
2023-10-08T00:50:50.557Z,65.81
2023-10-08T00:51:33.273Z,65.90
2023-10-08T00:53:40.495Z,65.78
2023-10-08T00:54:52.831Z,65.52
2023-10-08T00:55:31.609Z,65.47
2023-10-08T00:56:14.699Z,65.58
2023-10-08T00:56:58.056Z,65.51
2023-10-08T00:57:39.980Z,65.33
2023-10-08T00:58:25.674Z,66.00
2023-10-08T00:59:03.243Z,65.47
2023-10-08T00:59:46.186Z,66.12
2023-10-08T01:00:33.117Z,65.87
2023-10-08T01:01:11.945Z,65.88
2023-10-08T01:02:06.651Z,65.54
2023-10-08T01:02:48.210Z,65.80
2023-10-08T01:03:23.864Z,65.53
2023-10-08T01:03:57.829Z,65.91
2023-10-08T01:04:35.222Z,65.93
2023-10-08T01:05:13.045Z,65.85
2023-10-08T01:05:49.842Z,65.90
2023-10-08T01:06:31.151Z,66.21
2023-10-08T01:07:16.928Z,65.89
2023-10-08T01:07:53.422Z,66.13
2023-10-08T01:08:38.464Z,66.38
2023-10-08T01:09:28.498Z,66.48
2023-10-08T01:10:11.801Z,66.48
2023-10-08T01:10:48.592Z,66.86
2023-10-08T01:11:47.818Z,67.11
2023-10-08T01:12:35.281Z,67.47
2023-10-08T01:13:21.810Z,67.29
2023-10-08T01:13:56.590Z,67.04
2023-10-08T01:14:34.160Z,67.20
2023-10-08T01:15:21.039Z,67.25
2023-10-08T01:15:56.637Z,67.15
2023-10-08T01:16:35.747Z,67.14
2023-10-08T01:17:16.094Z,67.39
2023-10-08T01:18:02.195Z,67.11
2023-10-08T01:18:38.773Z,66.99
2023-10-08T01:19:15.695Z,66.83
2023-10-08T01:19:56.458Z,66.96
2023-10-08T01:20:37.866Z,67.39
2023-10-08T01:21:19.445Z,66.99
2023-10-08T01:21:54.625Z,67.29
2023-10-08T01:22:31.483Z,67.46
2023-10-08T01:23:15.648Z,67.37
2023-10-08T01:23:51.371Z,67.16
2023-10-08T01:24:28.897Z,67.57
2023-10-08T01:25:04.327Z,67.55
2023-10-08T01:25:40.055Z,67.79
2023-10-08T01:26:24.393Z,67.75
2023-10-08T01:26:59.925Z,67.78
2023-10-08T01:27:36.142Z,67.57
2023-10-08T01:28:38.459Z,67.66
2023-10-08T01:29:21.455Z,67.49
2023-10-08T01:29:57.226Z,68.29
2023-10-08T01:30:37.463Z,67.76
2023-10-08T01:31:14.339Z,67.99
2023-10-08T01:31:54.542Z,67.14
2023-10-08T01:32:28.132Z,67.79
2023-10-08T01:33:04.967Z,67.54
2023-10-08T01:33:48.092Z,67.47
2023-10-08T01:34:28.841Z,67.98
2023-10-08T01:35:05.329Z,67.75
2023-10-08T01:36:15.019Z,67.96
2023-10-08T01:36:50.693Z,68.18
2023-10-08T01:37:25.590Z,67.95
2023-10-08T01:38:01.505Z,68.09
2023-10-08T01:38:36.901Z,68.61
2023-10-08T01:39:16.650Z,68.39
2023-10-08T01:39:51.830Z,68.22
2023-10-08T01:40:26.244Z,68.13
2023-10-08T01:41:34.979Z,68.12
2023-10-08T01:42:21.771Z,68.58
2023-10-08T01:42:55.757Z,67.95
2023-10-08T01:43:34.705Z,67.99
2023-10-08T01:44:10.096Z,67.85
2023-10-08T01:44:56.789Z,67.73
2023-10-08T01:45:31.756Z,68.00
2023-10-08T01:46:06.217Z,68.07
2023-10-08T01:46:42.082Z,68.10
2023-10-08T01:47:18.332Z,67.69
2023-10-08T01:47:56.972Z,67.90
2023-10-08T01:48:38.956Z,68.73
2023-10-08T01:49:18.165Z,68.23
2023-10-08T01:50:02.144Z,68.24
2023-10-08T01:50:39.536Z,67.78
2023-10-08T01:51:26.237Z,68.04
2023-10-08T01:52:08.551Z,68.47
2023-10-08T01:52:47.908Z,68.37
2023-10-08T01:53:21.990Z,68.27
2023-10-08T01:53:59.827Z,67.92
2023-10-08T01:54:39.390Z,67.76
2023-10-08T01:55:19.315Z,68.52
2023-10-08T01:55:55.429Z,68.07
2023-10-08T01:56:31.581Z,68.12
2023-10-08T01:57:07.438Z,68.10
2023-10-08T01:57:40.995Z,67.91
2023-10-08T01:58:18.241Z,68.54
2023-10-08T01:58:53.708Z,67.95
2023-10-08T01:59:33.176Z,68.15
2023-10-08T02:00:10.875Z,68.19
2023-10-08T02:01:58.685Z,68.35
2023-10-08T02:02:32.897Z,68.67
2023-10-08T02:03:11.244Z,68.76
2023-10-08T02:03:46.710Z,68.85
2023-10-08T02:04:23.270Z,68.75
2023-10-08T02:04:58.868Z,68.80
2023-10-08T02:05:35.591Z,68.90
2023-10-08T02:06:10.826Z,68.64
2023-10-08T02:06:47.339Z,68.98
2023-10-08T02:07:22.984Z,69.12
2023-10-08T02:08:00.384Z,69.09
2023-10-08T02:08:38.813Z,69.29
2023-10-08T02:09:14.963Z,68.82
2023-10-08T02:09:49.591Z,68.85
2023-10-08T02:10:23.915Z,69.06
2023-10-08T02:10:58.167Z,69.12
2023-10-08T02:11:33.503Z,69.38
2023-10-08T02:12:09.671Z,68.56
2023-10-08T02:12:46.238Z,68.60
2023-10-08T02:13:21.856Z,68.79
2023-10-08T02:13:58.534Z,68.79
2023-10-08T02:14:36.987Z,69.12
2023-10-08T02:15:17.212Z,68.58
2023-10-08T02:15:53.318Z,68.80
2023-10-08T02:16:29.261Z,68.88
2023-10-08T02:17:03.192Z,69.07
2023-10-08T02:17:40.043Z,69.61
2023-10-08T02:18:15.923Z,69.38
2023-10-08T02:18:53.670Z,69.68
2023-10-08T02:19:30.009Z,69.54
2023-10-08T02:20:06.738Z,69.61
2023-10-08T02:20:43.135Z,69.44
2023-10-08T02:21:19.387Z,69.17
2023-10-08T02:21:56.402Z,68.94
2023-10-08T02:22:31.766Z,68.52
2023-10-08T02:23:39.749Z,69.09
2023-10-08T02:24:14.896Z,69.00
2023-10-08T02:24:52.020Z,69.35
2023-10-08T02:25:26.406Z,69.38
2023-10-08T02:26:02.137Z,69.37
2023-10-08T02:26:37.881Z,69.57
2023-10-08T02:27:12.197Z,69.14
2023-10-08T02:27:49.257Z,68.87
2023-10-08T02:28:25.745Z,69.48
2023-10-08T02:29:01.222Z,69.72
2023-10-08T02:29:36.902Z,69.27
2023-10-08T02:30:13.811Z,69.01
2023-10-08T02:30:47.844Z,69.07
2023-10-08T02:31:21.913Z,69.23
2023-10-08T02:31:56.085Z,69.07
2023-10-08T02:32:30.808Z,69.32
2023-10-08T02:34:09.171Z,69.16
2023-10-08T02:35:17.807Z,69.42
2023-10-08T02:35:54.907Z,69.18
2023-10-08T02:36:28.832Z,69.20
2023-10-08T02:37:05.065Z,68.95
2023-10-08T02:37:41.981Z,68.68
2023-10-08T02:38:19.827Z,68.51
2023-10-08T02:38:57.895Z,68.41
2023-10-08T02:39:33.693Z,69.01
2023-10-08T02:40:36.008Z,68.87
2023-10-08T02:41:11.975Z,68.44
2023-10-08T02:41:47.581Z,68.57
2023-10-08T02:42:23.540Z,68.62
2023-10-08T02:43:02.012Z,68.63
2023-10-08T02:43:38.050Z,68.76
2023-10-08T02:44:15.629Z,68.71
2023-10-08T02:44:52.537Z,68.83
2023-10-08T02:45:29.711Z,68.25
2023-10-08T02:46:16.424Z,67.87
2023-10-08T02:46:50.662Z,67.80
2023-10-08T02:47:25.908Z,67.81
2023-10-08T02:48:00.116Z,67.61
2023-10-08T02:48:35.848Z,67.67
2023-10-08T02:49:13.331Z,67.68
2023-10-08T02:49:49.630Z,67.42
2023-10-08T02:50:24.737Z,67.26
2023-10-08T02:51:08.247Z,67.48
2023-10-08T02:51:46.141Z,67.16
2023-10-08T02:52:19.936Z,67.52
2023-10-08T02:52:53.746Z,68.50
2023-10-08T02:53:31.075Z,68.11
2023-10-08T02:54:06.967Z,67.92
2023-10-08T02:54:40.917Z,68.02
2023-10-08T02:55:26.987Z,68.56
2023-10-08T02:56:08.750Z,68.33
2023-10-08T02:56:56.748Z,68.74
2023-10-08T02:57:33.265Z,68.51
2023-10-08T02:58:12.687Z,68.39
2023-10-08T02:58:48.985Z,68.87
2023-10-08T02:59:23.967Z,68.91
2023-10-08T02:59:57.911Z,68.49
2023-10-08T03:00:35.408Z,68.75
2023-10-08T03:01:13.800Z,68.45
2023-10-08T03:01:57.451Z,69.01
2023-10-08T03:02:31.069Z,68.55
2023-10-08T03:03:17.186Z,68.67
2023-10-08T03:04:00.956Z,68.43
2023-10-08T03:04:38.200Z,68.32
2023-10-08T03:05:14.814Z,68.36
2023-10-08T03:05:52.957Z,68.61
2023-10-08T03:06:26.822Z,68.84
2023-10-08T03:07:00.656Z,68.66
2023-10-08T03:07:36.984Z,68.28
2023-10-08T03:08:12.386Z,68.77
2023-10-08T03:08:49.194Z,68.92
2023-10-08T03:09:26.553Z,68.38
2023-10-08T03:10:05.512Z,68.85
2023-10-08T03:10:42.923Z,68.55
2023-10-08T03:11:19.445Z,68.82
2023-10-08T03:11:54.985Z,68.80
2023-10-08T03:12:33.663Z,69.20
2023-10-08T03:13:07.769Z,68.84
2023-10-08T03:13:42.891Z,68.95
2023-10-08T03:14:23.224Z,68.96
2023-10-08T03:15:02.938Z,68.76
2023-10-08T03:15:41.677Z,68.49
2023-10-08T03:16:16.791Z,68.98
2023-10-08T03:16:59.467Z,68.59
2023-10-08T03:17:39.124Z,68.72
2023-10-08T03:18:16.274Z,68.66
2023-10-08T03:18:51.708Z,68.67
2023-10-08T03:19:25.981Z,69.29
2023-10-08T03:20:19.888Z,69.88
2023-10-08T03:20:53.770Z,68.91
2023-10-08T03:21:45.280Z,69.33
2023-10-08T03:22:20.777Z,69.53
2023-10-08T03:22:56.193Z,70.47
2023-10-08T03:23:36.389Z,69.64
2023-10-08T03:24:25.039Z,70.10
2023-10-08T03:24:59.699Z,69.82
2023-10-08T03:25:42.980Z,70.49
2023-10-08T03:27:14.419Z,70.13
2023-10-08T03:28:23.064Z,69.85
2023-10-08T03:28:59.129Z,70.02
2023-10-08T03:29:44.352Z,69.79
2023-10-08T03:30:19.521Z,70.36
2023-10-08T03:31:03.982Z,70.48
2023-10-08T03:31:48.290Z,69.96
2023-10-08T03:32:28.075Z,70.42
2023-10-08T03:33:11.936Z,70.51
2023-10-08T03:33:50.648Z,70.44
2023-10-08T03:34:29.328Z,70.69
2023-10-08T03:35:05.666Z,70.68
2023-10-08T03:35:44.180Z,70.76
2023-10-08T03:36:22.817Z,71.15
2023-10-08T03:37:07.399Z,70.71
2023-10-08T03:37:46.906Z,70.64
2023-10-08T03:38:29.923Z,71.04
2023-10-08T03:39:14.521Z,70.60
2023-10-08T03:39:53.247Z,71.50
2023-10-08T03:40:43.855Z,70.73
2023-10-08T03:41:29.834Z,71.34
2023-10-08T03:42:09.642Z,71.19
2023-10-08T03:42:45.535Z,71.32
2023-10-08T03:43:35.350Z,71.36
2023-10-08T03:44:18.248Z,70.98
2023-10-08T03:45:43.529Z,71.58
2023-10-08T03:47:13.180Z,71.56
2023-10-08T03:47:48.329Z,71.81
2023-10-08T03:48:23.780Z,71.67
2023-10-08T03:49:01.947Z,71.98
2023-10-08T03:49:37.648Z,71.55
2023-10-08T03:50:11.502Z,71.26
2023-10-08T03:50:46.685Z,72.10
2023-10-08T03:51:22.242Z,71.71
2023-10-08T03:51:58.800Z,71.81
2023-10-08T03:52:32.863Z,71.57
2023-10-08T03:53:10.397Z,71.74
2023-10-08T03:54:00.702Z,71.62
2023-10-08T03:55:22.968Z,71.56
2023-10-08T03:56:02.392Z,71.44
2023-10-08T03:57:20.178Z,71.45
2023-10-08T03:57:58.669Z,72.08
2023-10-08T03:59:14.696Z,72.02
2023-10-08T03:59:50.470Z,72.02
2023-10-08T04:00:33.573Z,71.86
2023-10-08T04:01:11.304Z,72.45
2023-10-08T04:01:45.350Z,72.04
2023-10-08T04:02:46.886Z,72.67
2023-10-08T04:03:42.541Z,72.86
2023-10-08T04:04:16.915Z,72.35
2023-10-08T04:04:52.780Z,72.41
2023-10-08T04:05:34.259Z,72.46
2023-10-08T04:06:23.620Z,72.50
2023-10-08T04:07:17.562Z,72.56
2023-10-08T04:08:44.014Z,72.52
2023-10-08T04:09:25.242Z,72.76
2023-10-08T04:10:11.467Z,72.57
2023-10-08T04:11:05.962Z,72.62
2023-10-08T04:12:05.178Z,72.70
2023-10-08T04:12:52.093Z,72.76
2023-10-08T04:13:25.912Z,72.91
2023-10-08T04:14:03.804Z,73.51
2023-10-08T04:14:39.045Z,73.29
2023-10-08T04:15:19.534Z,72.96
2023-10-08T04:15:54.782Z,72.67
2023-10-08T04:16:29.289Z,73.03
2023-10-08T04:17:04.543Z,73.32
2023-10-08T04:17:46.817Z,73.02
2023-10-08T04:18:22.120Z,73.25
2023-10-08T04:18:58.252Z,72.75
2023-10-08T04:19:31.771Z,73.54
2023-10-08T04:20:19.430Z,73.43
2023-10-08T04:21:06.800Z,73.62
2023-10-08T04:21:44.234Z,73.59
2023-10-08T04:22:52.819Z,73.43
2023-10-08T04:23:26.642Z,73.75
2023-10-08T04:23:59.645Z,73.69
2023-10-08T04:24:36.451Z,73.30
2023-10-08T04:25:11.475Z,73.43
2023-10-08T04:25:56.103Z,73.68
2023-10-08T04:26:33.850Z,73.38
2023-10-08T04:27:10.981Z,73.59
2023-10-08T04:27:49.494Z,73.22
2023-10-08T04:28:29.969Z,73.46
2023-10-08T04:29:08.277Z,73.70
2023-10-08T04:29:42.056Z,73.78
2023-10-08T04:30:16.483Z,73.98
2023-10-08T04:32:09.377Z,74.04
2023-10-08T04:32:44.734Z,73.65
2023-10-08T04:33:20.898Z,74.11
2023-10-08T04:34:02.030Z,74.28
2023-10-08T04:34:38.070Z,74.15
2023-10-08T04:35:16.868Z,74.18
2023-10-08T04:36:23.638Z,73.78
2023-10-08T04:37:02.525Z,73.69
2023-10-08T04:37:42.509Z,73.60
2023-10-08T04:38:52.477Z,74.44
2023-10-08T04:39:34.057Z,74.58
2023-10-08T04:40:17.504Z,74.41
2023-10-08T04:41:03.385Z,74.19
2023-10-08T04:41:44.030Z,74.90
2023-10-08T04:42:27.721Z,74.93
2023-10-08T04:43:03.832Z,74.71
2023-10-08T04:43:40.150Z,74.25
2023-10-08T04:44:17.022Z,73.74
2023-10-08T04:44:53.792Z,74.00
2023-10-08T04:45:35.163Z,73.90
2023-10-08T04:46:47.086Z,74.36
2023-10-08T04:47:55.610Z,74.59
2023-10-08T04:48:34.484Z,74.40
2023-10-08T04:49:27.761Z,74.33
2023-10-08T04:50:07.830Z,74.65
2023-10-08T04:50:46.106Z,74.85
2023-10-08T04:51:24.182Z,75.20
2023-10-08T04:52:15.602Z,74.85
2023-10-08T04:52:59.801Z,75.31
2023-10-08T04:53:38.413Z,74.83
2023-10-08T04:54:19.966Z,74.90
2023-10-08T04:54:55.501Z,74.89
2023-10-08T04:55:31.358Z,75.00
2023-10-08T04:56:09.194Z,75.28
2023-10-08T04:56:45.453Z,75.02
2023-10-08T04:57:23.333Z,75.12
2023-10-08T04:57:59.604Z,75.37
2023-10-08T04:58:41.623Z,75.41
2023-10-08T04:59:15.826Z,74.88
2023-10-08T04:59:52.578Z,74.62
2023-10-08T05:00:45.208Z,74.80
2023-10-08T05:02:10.876Z,74.73
2023-10-08T05:02:51.799Z,74.81
2023-10-08T05:03:35.676Z,74.75
2023-10-08T05:04:25.855Z,74.33
2023-10-08T05:05:12.810Z,74.20
2023-10-08T05:05:57.130Z,74.46
2023-10-08T05:07:22.567Z,74.33
2023-10-08T05:08:18.658Z,74.38
2023-10-08T05:09:24.705Z,74.52
2023-10-08T05:10:09.404Z,74.31
2023-10-08T05:11:02.482Z,74.42
2023-10-08T05:11:55.241Z,74.36
2023-10-08T05:12:47.202Z,73.77
2023-10-08T05:14:18.699Z,74.35
2023-10-08T05:15:11.035Z,74.20
2023-10-08T05:16:22.660Z,74.30
2023-10-08T05:17:16.903Z,73.80
2023-10-08T05:17:53.246Z,73.70
2023-10-08T05:18:47.086Z,74.16
2023-10-08T05:19:39.098Z,74.04
2023-10-08T05:20:33.272Z,73.85
2023-10-08T05:21:27.267Z,73.76
2023-10-08T05:22:19.654Z,73.72
2023-10-08T05:23:12.732Z,73.96
2023-10-08T05:24:29.170Z,73.97
2023-10-08T05:25:09.546Z,73.36
2023-10-08T05:26:11.923Z,73.20
2023-10-08T05:26:51.024Z,72.87
2023-10-08T05:27:58.257Z,72.61
2023-10-08T05:28:59.331Z,72.85
2023-10-08T05:30:02.273Z,72.24
2023-10-08T05:31:19.438Z,72.71
2023-10-08T05:32:14.742Z,72.43
2023-10-08T05:33:06.951Z,72.34
2023-10-08T05:34:25.008Z,71.83
2023-10-08T05:35:20.994Z,72.11
2023-10-08T05:36:04.390Z,71.19
2023-10-08T05:36:52.805Z,71.43
2023-10-08T05:37:43.311Z,71.63
2023-10-08T05:39:02.266Z,71.67
2023-10-08T05:40:22.848Z,71.58
2023-10-08T05:41:00.066Z,71.45
2023-10-08T05:41:53.078Z,70.61
2023-10-08T05:42:31.116Z,70.87
2023-10-08T05:43:24.113Z,70.36
2023-10-08T05:44:41.599Z,70.27
2023-10-08T05:46:09.750Z,70.38
2023-10-08T05:46:56.481Z,70.17
2023-10-08T05:47:30.169Z,69.97
2023-10-08T05:48:14.770Z,69.42
2023-10-08T05:48:48.040Z,69.69
2023-10-08T05:49:34.525Z,69.94
2023-10-08T05:50:40.028Z,70.12
2023-10-08T05:51:25.207Z,69.36
2023-10-08T05:52:03.675Z,69.88
2023-10-08T05:52:56.192Z,69.67
2023-10-08T05:53:45.085Z,69.50
2023-10-08T05:54:31.432Z,69.21
2023-10-08T05:55:48.943Z,68.63
2023-10-08T05:56:30.619Z,68.71
2023-10-08T05:57:12.443Z,68.11
2023-10-08T05:57:53.645Z,68.47
2023-10-08T05:59:15.910Z,68.40
2023-10-08T05:59:59.029Z,68.05
2023-10-08T06:00:34.059Z,68.11
2023-10-08T06:01:27.752Z,68.47
2023-10-08T06:02:09.091Z,67.91
2023-10-08T06:03:58.281Z,68.48
2023-10-08T06:04:54.821Z,67.56
2023-10-08T06:05:34.457Z,67.71
2023-10-08T06:06:12.482Z,67.49
2023-10-08T06:06:58.975Z,67.58
2023-10-08T06:07:49.057Z,67.48
2023-10-08T06:08:44.545Z,67.48
2023-10-08T06:09:22.957Z,67.57
2023-10-08T06:10:31.871Z,67.13
2023-10-08T06:11:19.181Z,66.90
2023-10-08T06:12:08.166Z,66.80
2023-10-08T06:12:51.242Z,67.17
2023-10-08T06:14:04.374Z,67.52
2023-10-08T06:15:13.542Z,66.96
2023-10-08T06:16:07.065Z,66.46
2023-10-08T06:16:45.049Z,66.64
2023-10-08T06:17:37.094Z,66.66
2023-10-08T06:18:16.361Z,66.17
2023-10-08T06:18:52.087Z,65.67
2023-10-08T06:19:27.561Z,66.27
2023-10-08T06:20:12.117Z,65.70
2023-10-08T06:20:48.716Z,66.23
2023-10-08T06:21:22.591Z,66.16
2023-10-08T06:22:31.643Z,65.91
2023-10-08T06:23:38.642Z,65.49
2023-10-08T06:24:45.937Z,65.06
2023-10-08T06:25:24.615Z,65.14
2023-10-08T06:26:12.042Z,64.92
2023-10-08T06:26:50.311Z,64.95
2023-10-08T06:27:26.710Z,64.46
2023-10-08T06:28:00.669Z,64.86
2023-10-08T06:28:36.405Z,64.37
2023-10-08T06:29:20.219Z,64.81
2023-10-08T06:29:56.463Z,63.93
2023-10-08T06:30:36.619Z,63.58
2023-10-08T06:31:17.678Z,64.11
2023-10-08T06:32:03.442Z,64.40
2023-10-08T06:32:38.950Z,64.02
2023-10-08T06:33:12.799Z,63.76
2023-10-08T06:33:49.998Z,64.11
2023-10-08T06:34:29.267Z,63.42
2023-10-08T06:35:04.879Z,63.63
2023-10-08T06:35:38.880Z,63.58
2023-10-08T06:36:15.005Z,63.37
2023-10-08T06:36:57.160Z,62.83
2023-10-08T06:38:08.769Z,63.04
2023-10-08T06:38:45.368Z,62.96
2023-10-08T06:39:26.999Z,63.50
2023-10-08T06:40:02.598Z,62.73
2023-10-08T06:40:38.629Z,62.89
2023-10-08T06:41:14.541Z,62.80
2023-10-08T06:41:58.495Z,62.40
2023-10-08T06:42:36.543Z,62.76
2023-10-08T06:43:25.979Z,61.94
2023-10-08T06:44:32.898Z,61.46
2023-10-08T06:45:10.891Z,62.13
2023-10-08T06:45:48.411Z,61.32
2023-10-08T06:46:22.806Z,61.40
2023-10-08T06:46:58.157Z,61.13
2023-10-08T06:47:31.997Z,60.88
2023-10-08T06:48:05.302Z,60.58
2023-10-08T06:48:39.529Z,60.49
2023-10-08T06:49:15.603Z,60.99
2023-10-08T06:49:53.180Z,60.63
2023-10-08T06:50:28.634Z,60.84
2023-10-08T06:51:14.674Z,60.87
2023-10-08T06:51:49.695Z,61.59
2023-10-08T06:52:24.981Z,61.27
2023-10-08T06:52:58.731Z,61.23
2023-10-08T06:53:35.484Z,61.12
2023-10-08T06:54:15.870Z,61.43
2023-10-08T06:54:54.506Z,61.54
2023-10-08T06:55:29.654Z,61.30
2023-10-08T06:56:08.947Z,61.29
2023-10-08T06:56:48.158Z,61.40
2023-10-08T06:57:28.186Z,61.21
2023-10-08T06:58:09.251Z,61.97
2023-10-08T06:58:54.271Z,62.31
2023-10-08T07:00:04.178Z,61.93
2023-10-08T07:00:41.510Z,61.89
2023-10-08T07:01:22.765Z,62.17
2023-10-08T07:01:55.794Z,62.07
2023-10-08T07:02:29.907Z,62.49
2023-10-08T07:03:07.390Z,62.46
2023-10-08T07:03:58.070Z,62.37
2023-10-08T07:04:30.847Z,62.39
2023-10-08T07:05:42.700Z,62.90
2023-10-08T07:06:32.836Z,63.07
2023-10-08T07:07:10.839Z,61.75
2023-10-08T07:07:46.604Z,61.98
2023-10-08T07:08:24.675Z,62.57
2023-10-08T07:09:00.715Z,61.69
2023-10-08T07:10:05.810Z,62.03
2023-10-08T07:11:13.161Z,61.90
2023-10-08T07:11:46.986Z,62.26
2023-10-08T07:12:26.048Z,61.63
2023-10-08T07:13:04.212Z,61.89
2023-10-08T07:13:38.690Z,61.67
2023-10-08T07:14:15.128Z,61.32
2023-10-08T07:14:48.004Z,61.19
2023-10-08T07:15:54.445Z,60.99
2023-10-08T07:16:29.628Z,60.90
2023-10-08T07:17:09.557Z,60.88
2023-10-08T07:17:44.307Z,60.93
2023-10-08T07:18:28.862Z,60.81
2023-10-08T07:19:05.053Z,60.68
2023-10-08T07:19:42.081Z,60.45
2023-10-08T07:20:22.751Z,60.49
2023-10-08T07:21:02.302Z,60.20
2023-10-08T07:21:58.955Z,60.33
2023-10-08T07:22:35.008Z,60.61
2023-10-08T07:23:13.868Z,60.31
2023-10-08T07:24:23.083Z,60.25
2023-10-08T07:24:58.744Z,60.16
2023-10-08T07:25:38.318Z,60.29
2023-10-08T07:26:13.133Z,59.84
2023-10-08T07:27:41.942Z,56.16
2023-10-08T07:28:20.854Z,52.34
2023-10-08T07:28:54.933Z,51.17
2023-10-08T07:30:33.821Z,49.58
2023-10-08T07:31:18.855Z,51.75
2023-10-08T07:31:54.251Z,49.02
2023-10-08T07:32:32.079Z,48.58
2023-10-08T07:33:05.412Z,50.73
2023-10-08T07:34:19.438Z,50.08
2023-10-08T07:34:58.981Z,52.24
2023-10-08T07:36:13.814Z,47.68
2023-10-08T07:36:48.707Z,45.41
2023-10-08T07:37:21.623Z,45.91
2023-10-08T07:37:56.187Z,44.11
2023-10-08T07:38:31.453Z,46.81
2023-10-08T07:39:09.450Z,49.31
2023-10-08T07:39:51.200Z,51.19
2023-10-08T07:40:29.366Z,52.64
2023-10-08T07:41:02.511Z,52.16
2023-10-08T07:41:35.154Z,52.93
2023-10-08T07:42:41.499Z,53.28
2023-10-08T07:43:14.006Z,53.90
2023-10-08T07:44:12.560Z,53.22
2023-10-08T07:44:45.408Z,53.85
2023-10-08T07:45:23.652Z,53.42
2023-10-08T07:45:55.682Z,54.10
2023-10-08T07:46:28.121Z,54.38
2023-10-08T07:47:01.073Z,54.81
2023-10-08T07:48:12.301Z,55.20
2023-10-08T07:48:44.977Z,54.60
2023-10-08T07:49:17.031Z,54.59
2023-10-08T07:49:49.039Z,55.11
2023-10-08T07:50:21.456Z,54.25
2023-10-08T07:51:26.813Z,53.97
2023-10-08T07:52:02.291Z,54.22
2023-10-08T07:53:07.442Z,53.87
2023-10-08T07:53:39.397Z,53.90
2023-10-08T07:54:17.732Z,54.54
2023-10-08T07:55:28.614Z,54.66
2023-10-08T07:56:01.686Z,54.05
2023-10-08T07:56:33.749Z,54.59
2023-10-08T07:57:14.151Z,53.48
2023-10-08T07:58:23.317Z,54.12
2023-10-08T07:58:58.078Z,53.95
2023-10-08T07:59:30.287Z,53.85
2023-10-08T08:00:24.953Z,54.50
2023-10-08T08:01:35.374Z,53.48
2023-10-08T08:02:13.982Z,53.17
2023-10-08T08:02:47.164Z,53.36
2023-10-08T08:03:21.875Z,53.09
2023-10-08T08:04:34.702Z,54.35
2023-10-08T08:05:08.278Z,52.64
2023-10-08T08:05:50.356Z,51.07
2023-10-08T08:06:35.190Z,49.43
2023-10-08T08:08:42.543Z,45.80
2023-10-08T08:09:21.014Z,45.35
2023-10-08T08:10:01.153Z,45.64
2023-10-08T08:10:40.131Z,45.17
2023-10-08T08:11:18.923Z,44.31
2023-10-08T08:11:51.296Z,44.88
2023-10-08T08:12:26.824Z,44.38
2023-10-08T08:13:02.990Z,44.82
2023-10-08T08:13:48.236Z,44.87
2023-10-08T08:14:55.841Z,44.14
2023-10-08T08:15:30.829Z,44.94
2023-10-08T08:17:24.088Z,44.35
2023-10-08T08:18:35.910Z,44.93
2023-10-08T08:19:11.407Z,43.13
2023-10-08T08:19:45.970Z,43.26
2023-10-08T08:20:52.082Z,43.49
2023-10-08T08:21:27.087Z,42.78
2023-10-08T08:22:04.241Z,43.75
2023-10-08T08:22:42.761Z,43.03
2023-10-08T08:23:18.109Z,43.08
2023-10-08T08:23:51.640Z,43.45
2023-10-08T08:24:46.261Z,44.08
2023-10-08T08:25:27.948Z,43.38
2023-10-08T08:27:04.353Z,43.08
2023-10-08T08:27:42.849Z,43.12
2023-10-08T08:28:33.413Z,42.74
2023-10-08T08:30:24.299Z,41.82
2023-10-08T08:30:59.099Z,43.32
2023-10-08T08:31:37.094Z,43.06
2023-10-08T08:32:09.401Z,42.75
2023-10-08T08:33:23.325Z,43.78
2023-10-08T08:34:51.983Z,43.01
2023-10-08T08:35:25.706Z,42.16
2023-10-08T08:36:02.180Z,42.12
2023-10-08T08:36:34.643Z,43.07
2023-10-08T08:37:41.206Z,42.25
2023-10-08T08:38:13.737Z,41.69
2023-10-08T08:39:42.994Z,41.76
2023-10-08T08:40:26.467Z,42.37
2023-10-08T08:41:13.542Z,43.05
2023-10-08T08:41:46.340Z,42.92
2023-10-08T08:42:21.479Z,42.57
2023-10-08T08:42:54.199Z,42.82
2023-10-08T08:43:27.487Z,42.32
2023-10-08T08:44:00.362Z,42.45
2023-10-08T08:46:16.612Z,43.02
2023-10-08T08:46:50.328Z,43.66
2023-10-08T08:47:26.362Z,43.31
2023-10-08T08:47:58.998Z,42.88
2023-10-08T08:49:09.038Z,42.69
2023-10-08T08:49:44.318Z,43.36
2023-10-08T08:50:19.138Z,43.16
2023-10-08T08:50:51.373Z,43.38
2023-10-08T08:52:02.972Z,42.81
2023-10-08T08:52:39.903Z,42.60
2023-10-08T08:53:13.125Z,42.42
2023-10-08T08:53:47.929Z,42.39
2023-10-08T08:54:56.793Z,43.07
2023-10-08T08:55:33.993Z,43.06
2023-10-08T08:56:40.201Z,42.75
2023-10-08T08:57:51.084Z,43.46
2023-10-08T08:58:57.815Z,43.08
2023-10-08T08:59:31.652Z,42.77
2023-10-08T09:00:11.613Z,42.21
2023-10-08T09:00:48.908Z,43.17
2023-10-08T09:01:27.336Z,44.02
2023-10-08T09:02:03.345Z,43.70
2023-10-08T09:03:14.613Z,42.94
2023-10-08T09:03:52.478Z,44.76
2023-10-08T09:04:39.042Z,43.03
2023-10-08T09:05:32.181Z,43.65
2023-10-08T09:06:06.046Z,43.90
2023-10-08T09:06:41.965Z,42.24
2023-10-08T09:07:24.969Z,42.31
2023-10-08T09:08:06.961Z,43.09
2023-10-08T09:09:25.878Z,42.21
2023-10-08T09:11:06.170Z,41.77
2023-10-08T09:11:46.198Z,41.02
2023-10-08T09:12:23.247Z,41.61
2023-10-08T09:13:02.985Z,42.11
2023-10-08T09:13:37.481Z,42.62
2023-10-08T09:14:12.293Z,41.95
2023-10-08T09:14:47.652Z,42.93
2023-10-08T09:15:24.270Z,42.23
2023-10-08T09:16:08.216Z,41.21
2023-10-08T09:16:42.600Z,41.27
2023-10-08T09:17:16.517Z,41.96
2023-10-08T09:18:06.664Z,41.00
2023-10-08T09:18:42.549Z,41.60
2023-10-08T09:19:48.975Z,40.90
2023-10-08T09:20:21.951Z,41.21
2023-10-08T09:20:54.869Z,40.15
2023-10-08T09:22:12.400Z,40.16
2023-10-08T09:22:46.081Z,39.33
2023-10-08T09:23:25.338Z,39.23
2023-10-08T09:24:31.953Z,40.10
2023-10-08T09:25:09.667Z,39.50
2023-10-08T09:26:23.595Z,39.46
2023-10-08T09:26:57.434Z,39.12
2023-10-08T09:27:32.238Z,39.45